Time;durP1;ratioP1;P1;durP2;ratioP2;P2;SDS_P1;SDS_P2;PMS_P1;PMS_P2;Temp;Humidity;BMP_temperature;BMP_pressure;BME280_temperature;BME280_humidity;BME280_pressure;Samples;Min_cycle;Max_cycle;Signal;HPM_P1;HPM_P2
2022/08/27 07:44:23;;;;;;;4.30;1.55;;;;;;;27.51;43.92;101514.50;1065742;27;20325;-71
2022/08/27 07:44:26;;;;;;;4.25;0.60;;;;;;;26.26;45.40;101518.75;1059669;28;20043;-71
2022/08/27 07:45:06;;;;;;;2.35;0.80;;;;;;;25.82;46.42;101516.66;1059796;28;20070;-71
2022/08/27 07:45:47;;;;;;;1.08;0.85;;;;;;;25.41;47.36;101520.06;1059668;28;20047;-72
2022/08/27 07:46:20;;;;;;;1.67;0.90;;;;;;;25.01;48.13;101515.31;1064560;27;20103;-73
2022/08/27 07:46:54;;;;;;;3.22;1.00;;;;;;;24.81;48.23;101528.09;1064126;27;20122;-71
2022/08/27 07:47:26;;;;;;;4.22;1.63;;;;;;;24.74;48.79;101533.09;1064283;27;20042;-71
2022/08/27 07:47:58;;;;;;;11.98;1.60;;;;;;;24.49;48.87;101522.56;1064199;27;20130;-69
2022/08/27 07:48:32;;;;;;;11.27;0.80;;;;;;;24.33;49.36;101521.94;1064359;27;20035;-72
2022/08/27 07:49:06;;;;;;;2.38;1.42;;;;;;;23.99;50.18;101531.03;1064243;27;20039;-70
2022/08/27 07:49:38;;;;;;;3.00;1.23;;;;;;;23.91;50.34;101533.56;1058414;28;20044;-68
2022/08/27 07:50:10;;;;;;;2.40;0.95;;;;;;;23.77;50.59;101529.91;1059518;28;20118;-70
2022/08/27 07:50:42;;;;;;;3.33;0.88;;;;;;;23.46;51.26;101535.59;1060312;28;20043;-67
2022/08/27 07:51:17;;;;;;;3.38;0.80;;;;;;;23.33;51.91;101537.09;1060586;27;20114;-68
2022/08/27 07:51:51;;;;;;;11.88;1.15;;;;;;;23.22;52.18;101540.16;1062410;27;20100;-67
2022/08/27 07:52:23;;;;;;;5.78;0.95;;;;;;;23.10;52.52;101538.63;1063962;27;20054;-67
2022/08/27 07:52:57;;;;;;;1.30;0.93;;;;;;;22.92;53.18;101536.56;1064252;27;20038;-69
2022/08/27 07:53:28;;;;;;;2.67;0.90;;;;;;;22.79;53.93;101543.41;1063771;27;20543;-68
2022/08/27 07:54:00;;;;;;;5.20;0.85;;;;;;;22.75;53.98;101552.41;1063800;27;20035;-67
2022/08/27 07:54:31;;;;;;;3.22;1.20;;;;;;;22.72;53.86;101545.59;1060505;27;20039;-67
2022/08/27 07:55:04;;;;;;;2.05;1.67;;;;;;;22.59;53.87;101548.94;1063932;27;20038;-67
2022/08/27 07:55:37;;;;;;;2.17;0.93;;;;;;;22.47;54.47;101541.16;1063688;27;20039;-66
2022/08/27 07:56:09;;;;;;;2.88;1.13;;;;;;;22.38;54.57;101542.78;1059573;28;20531;-67
2022/08/27 07:56:41;;;;;;;3.10;1.30;;;;;;;22.26;55.25;101542.31;1059605;28;20039;-68
2022/08/27 07:57:24;;;;;;;2.03;1.45;;;;;;;22.23;55.27;101542.88;1059334;28;20074;-68
2022/08/27 07:57:56;;;;;;;5.05;1.30;;;;;;;22.28;55.49;101552.88;1061993;27;20035;-67
2022/08/27 07:58:28;;;;;;;2.00;0.98;;;;;;;22.27;55.47;101545.84;1063942;27;20039;-67
2022/08/27 07:58:59;;;;;;;5.13;2.53;;;;;;;22.16;55.63;101545.84;1063664;27;20031;-67
2022/08/27 07:59:31;;;;;;;1.42;1.08;;;;;;;22.12;55.91;101549.41;1063882;27;20042;-68
2022/08/27 08:00:06;;;;;;;2.03;0.82;;;;;;;22.00;56.19;101546.97;1064341;27;20113;-66
2022/08/27 08:00:44;;;;;;;1.08;0.77;;;;;;;21.92;56.82;101550.25;1059600;28;20043;-66
2022/08/27 08:01:16;;;;;;;1.73;1.30;;;;;;;21.95;56.64;101549.72;1059598;28;20042;-66
2022/08/27 08:01:47;;;;;;;5.30;1.60;;;;;;;21.93;56.66;101556.50;1059477;28;20050;-68
2022/08/27 08:02:19;;;;;;;1.05;1.00;;;;;;;21.87;56.76;101548.34;1061140;27;20043;-69
2022/08/27 08:02:51;;;;;;;4.18;1.17;;;;;;;21.87;56.75;101542.91;1064020;27;20628;-68
2022/08/27 08:03:22;;;;;;;3.97;1.42;;;;;;;21.84;56.80;101558.94;1064018;27;20412;-67
2022/08/27 08:03:55;;;;;;;2.67;1.00;;;;;;;21.83;56.71;101557.31;1063604;27;20042;-70
2022/08/27 08:04:26;;;;;;;1.48;1.38;;;;;;;21.80;56.66;101547.00;1064003;27;20069;-67
2022/08/27 08:04:58;;;;;;;2.40;1.15;;;;;;;21.74;56.88;101558.97;1064195;27;20034;-72
2022/08/27 08:05:30;;;;;;;2.58;0.93;;;;;;;21.73;57.18;101560.03;1059529;28;20058;-71
2022/08/27 08:06:09;;;;;;;2.97;1.23;;;;;;;21.57;57.44;101556.53;1058984;28;20051;-74
2022/08/27 08:06:40;;;;;;;3.58;0.98;;;;;;;21.59;57.88;101557.06;1058092;28;20043;-71
2022/08/27 08:07:12;;;;;;;1.58;1.10;;;;;;;21.55;57.91;101555.97;1061156;27;20400;-72
2022/08/27 08:07:44;;;;;;;1.88;1.08;;;;;;;21.53;57.92;101563.56;1064131;27;20054;-71
2022/08/27 08:08:16;;;;;;;3.90;1.10;;;;;;;21.55;58.01;101559.50;1061644;27;20038;-70
2022/08/27 08:08:47;;;;;;;6.30;1.52;;;;;;;21.55;58.08;101558.69;1063326;27;20047;-71
2022/08/27 08:09:22;;;;;;;4.45;1.90;;;;;;;21.54;58.25;101559.78;1063343;27;20061;-72
2022/08/27 08:09:54;;;;;;;2.30;1.17;;;;;;;21.44;58.59;101559.78;1063760;27;20162;-71
2022/08/27 08:10:25;;;;;;;6.68;1.58;;;;;;;21.52;58.50;101565.47;1064031;27;20035;-72
2022/08/27 08:10:58;;;;;;;2.35;1.10;;;;;;;21.52;58.31;101561.94;1059013;28;20068;-72
2022/08/27 08:11:30;;;;;;;2.08;0.95;;;;;;;21.57;58.35;101559.22;1059512;28;20105;-72
2022/08/27 08:12:02;;;;;;;4.57;1.23;;;;;;;21.56;58.15;101565.75;1058988;28;21951;-71
2022/08/27 08:12:35;;;;;;;6.25;1.63;;;;;;;21.54;57.93;101566.00;1060624;27;20035;-71
2022/08/27 08:13:07;;;;;;;5.15;1.45;;;;;;;21.53;57.97;101558.97;1064093;27;20076;-72
2022/08/27 08:13:38;;;;;;;6.63;1.33;;;;;;;21.49;58.02;101567.91;1063722;27;20043;-71
2022/08/27 08:14:10;;;;;;;1.48;0.80;;;;;;;21.51;57.97;101565.75;1064103;27;20051;-71
2022/08/27 08:14:42;;;;;;;6.00;1.02;;;;;;;21.48;57.86;101567.09;1061991;27;20110;-71
2022/08/27 08:15:16;;;;;;;3.90;1.10;;;;;;;21.46;57.96;101568.47;1062528;27;20042;-71
2022/08/27 08:15:48;;;;;;;5.15;1.70;;;;;;;21.42;58.06;101562.78;1063420;27;20038;-70
2022/08/27 08:16:22;;;;;;;7.68;1.08;;;;;;;21.46;58.02;101563.84;1064092;27;20043;-70
2022/08/27 08:17:00;;;;;;;6.15;0.95;;;;;;;21.46;58.28;101565.75;1062979;27;20160;-70
2022/08/27 08:17:33;;;;;;;3.35;1.52;;;;;;;21.45;58.24;101566.84;1059614;28;20050;-70
2022/08/27 08:18:05;;;;;;;4.05;1.10;;;;;;;21.48;58.05;101566.28;1055459;28;20722;-70
2022/08/27 08:18:36;;;;;;;8.23;1.30;;;;;;;21.49;58.02;101567.91;1053609;28;20040;-70
2022/08/27 08:19:08;;;;;;;0.95;0.88;;;;;;;21.50;57.67;101558.69;1055659;28;20040;-70
2022/08/27 08:19:40;;;;;;;3.88;1.65;;;;;;;21.47;58.02;101565.47;1055968;28;20043;-70
2022/08/27 08:20:13;;;;;;;6.15;1.17;;;;;;;21.49;57.99;101567.91;1059702;28;20040;-71
2022/08/27 08:21:08;;;;;;;1.52;0.80;;;;;;;21.51;57.84;101566.56;1059468;28;20062;-71
2022/08/27 08:21:40;;;;;;;3.50;0.98;;;;;;;21.52;57.79;101561.94;1058799;28;20150;-71
2022/08/27 08:22:13;;;;;;;7.88;1.25;;;;;;;21.54;57.66;101570.63;1059363;28;20067;-71
2022/08/27 08:22:45;;;;;;;3.97;1.08;;;;;;;21.54;57.40;101559.78;1059418;28;20054;-71
2022/08/27 08:23:17;;;;;;;3.13;1.20;;;;;;;21.52;57.50;101567.38;1060460;27;20051;-70
2022/08/27 08:23:48;;;;;;;4.18;0.90;;;;;;;21.53;57.50;101577.13;1059284;28;20131;-70
2022/08/27 08:24:20;;;;;;;2.88;0.98;;;;;;;21.51;57.39;101571.16;1058909;28;20055;-71
2022/08/27 08:24:52;;;;;;;5.75;1.25;;;;;;;21.50;57.45;101572.25;1057961;28;20044;-70
2022/08/27 08:25:24;;;;;;;4.22;0.98;;;;;;;21.49;57.46;101567.91;1060363;27;20058;-70
2022/08/27 08:25:56;;;;;;;3.15;1.42;;;;;;;21.40;57.13;101566.84;1064116;27;20049;-71
2022/08/27 08:26:28;;;;;;;5.30;0.70;;;;;;;21.39;57.37;101567.94;1059285;28;20101;-71
2022/08/27 08:26:59;;;;;;;3.58;1.30;;;;;;;21.35;57.47;101570.34;1057817;28;20055;-70
2022/08/27 08:27:37;;;;;;;4.32;1.35;;;;;;;21.40;57.29;101575.78;1059619;28;20870;-71
2022/08/27 08:28:10;;;;;;;1.40;1.05;;;;;;;21.42;57.31;101573.63;1060721;27;20282;-71
2022/08/27 08:28:43;;;;;;;6.50;1.65;;;;;;;21.38;57.54;101579.84;1059673;28;20058;-71
2022/08/27 08:29:14;;;;;;;4.60;0.90;;;;;;;21.41;57.41;101573.88;1059544;28;20035;-70
2022/08/27 08:29:49;;;;;;;3.28;1.00;;;;;;;21.37;58.00;101576.34;1057196;28;20545;-71
2022/08/27 08:30:21;;;;;;;2.75;0.93;;;;;;;21.41;57.79;101579.31;1059477;27;20125;-70
2022/08/27 08:30:53;;;;;;;3.58;1.23;;;;;;;21.39;57.72;101582.28;1061099;27;20054;-71
2022/08/27 08:31:26;;;;;;;2.80;0.90;;;;;;;21.44;57.48;101576.06;1064043;27;20087;-70
2022/08/27 08:31:58;;;;;;;3.05;0.90;;;;;;;21.43;57.47;101580.66;1063955;27;20031;-69
2022/08/27 08:32:29;;;;;;;1.17;0.60;;;;;;;21.45;57.28;101578.50;1064002;27;20041;-70
2022/08/27 08:33:01;;;;;;;3.88;0.90;;;;;;;21.47;57.17;101576.31;1058828;28;20039;-70
2022/08/27 08:33:33;;;;;;;2.80;0.70;;;;;;;21.44;57.12;101570.63;1059020;28;20047;-70
2022/08/27 08:34:05;;;;;;;4.13;1.60;;;;;;;21.44;57.05;101570.63;1058568;28;20050;-70
2022/08/27 08:34:37;;;;;;;3.33;0.65;;;;;;;21.45;56.90;101577.69;1059740;27;20046;-70
2022/08/27 08:35:09;;;;;;;3.83;0.98;;;;;;;21.47;56.92;101570.09;1063525;27;20042;-70
2022/08/27 08:35:40;;;;;;;3.40;0.88;;;;;;;21.47;56.91;101572.81;1064003;27;20043;-71
2022/08/27 08:36:15;;;;;;;4.65;1.33;;;;;;;21.45;56.60;101575.78;1063567;27;20039;-70
2022/08/27 08:36:47;;;;;;;1.58;0.73;;;;;;;21.44;56.84;101578.78;1063869;27;20186;-70
2022/08/27 08:37:25;;;;;;;1.77;0.75;;;;;;;21.40;56.46;101572.25;1059029;28;20040;-69
2022/08/27 08:37:57;;;;;;;4.00;0.70;;;;;;;21.42;56.38;101578.22;1059307;28;20039;-70
2022/08/27 08:38:30;;;;;;;5.35;1.33;;;;;;;21.37;56.44;101570.09;1057179;28;20122;-70
2022/08/27 08:39:03;;;;;;;2.90;0.90;;;;;;;21.40;56.20;101578.50;1059547;27;20043;-69
2022/08/27 08:39:36;;;;;;;2.08;0.77;;;;;;;21.39;56.13;101578.78;1063690;27;20050;-69
2022/08/27 08:40:09;;;;;;;2.92;0.80;;;;;;;21.39;56.18;101573.34;1063827;27;20392;-71
2022/08/27 08:40:45;;;;;;;2.83;0.80;;;;;;;21.37;56.13;101572.81;1064098;27;20106;-70
2022/08/27 08:41:49;;;;;;;1.73;0.60;;;;;;;21.40;56.24;101580.41;1063987;27;20046;-70
2022/08/27 08:42:40;;;;;;;0.80;0.60;;;;;;;21.44;55.85;101570.63;1063650;27;20099;-69
2022/08/27 08:43:37;;;;;;;2.25;0.70;;;;;;;21.45;56.11;101572.25;1057943;28;20081;-69
2022/08/27 08:44:25;;;;;;;1.60;0.75;;;;;;;21.39;56.33;101570.63;1058947;28;20058;-69
2022/08/27 08:44:58;;;;;;;7.97;0.98;;;;;;;21.43;56.22;101575.25;1052831;28;20040;-69
2022/08/27 08:45:33;;;;;;;1.48;0.80;;;;;;;21.47;56.23;101570.09;1052839;28;20040;-69
2022/08/27 08:46:16;;;;;;;2.78;0.75;;;;;;;21.48;56.46;101577.13;1053551;28;20114;-69
2022/08/27 08:46:55;;;;;;;1.85;0.85;;;;;;;21.47;56.45;101570.09;1054905;28;20040;-69
2022/08/27 08:47:31;;;;;;;3.50;0.82;;;;;;;21.48;56.64;101574.44;1055264;28;20575;-71
2022/08/27 08:48:04;;;;;;;2.25;1.15;;;;;;;21.50;56.79;101575.78;1062554;27;20050;-71
2022/08/27 08:48:39;;;;;;;2.08;1.58;;;;;;;21.50;56.56;101575.78;1059324;28;20065;-70
2022/08/27 08:49:28;;;;;;;1.67;0.90;;;;;;;21.53;56.63;101574.41;1058966;28;20035;-70
2022/08/27 08:50:06;;;;;;;2.25;0.75;;;;;;;21.52;56.56;101572.78;1054655;28;20516;-71
2022/08/27 08:51:01;;;;;;;0.73;0.65;;;;;;;21.54;56.91;101573.34;1059333;28;20043;-70
2022/08/27 08:51:41;;;;;;;2.35;0.90;;;;;;;21.56;56.50;101573.88;1055189;28;20040;-70
2022/08/27 08:52:21;;;;;;;1.77;0.70;;;;;;;21.54;56.54;101576.03;1055254;28;20046;-71
2022/08/27 08:53:29;;;;;;;4.50;0.95;;;;;;;21.59;56.61;101576.03;1047391;28;20246;-70
2022/08/27 08:54:04;;;;;;;1.92;0.80;;;;;;;21.61;56.56;101582.00;1053229;28;20044;-70
2022/08/27 08:54:37;;;;;;;6.80;2.38;;;;;;;21.60;56.62;101574.94;1058115;27;20122;-72
2022/08/27 08:55:11;;;;;;;11.45;1.25;;;;;;;21.61;56.72;101582.00;1058789;27;20044;-71
2022/08/27 08:55:50;;;;;;;1.25;0.50;;;;;;;21.62;56.96;101583.63;1060985;27;20045;-71
2022/08/27 08:56:46;;;;;;;3.00;1.15;;;;;;;21.66;56.79;101576.59;1060617;27;20519;-71
2022/08/27 08:57:31;;;;;;;4.72;1.73;;;;;;;21.69;56.92;101577.94;1056703;28;20047;-71
2022/08/27 08:58:04;;;;;;;1.10;0.60;;;;;;;21.68;56.94;101574.44;1056772;28;20073;-71
2022/08/27 08:58:45;;;;;;;1.38;0.82;;;;;;;21.65;56.86;101569.56;1055586;28;20039;-70
2022/08/27 08:59:28;;;;;;;1.58;0.70;;;;;;;21.69;56.85;101573.34;1056130;28;20544;-71
2022/08/27 09:00:04;;;;;;;3.75;0.75;;;;;;;21.68;56.95;101576.31;1053498;28;20044;-70
2022/08/27 09:00:38;;;;;;;3.03;0.68;;;;;;;21.67;57.08;101577.41;1053706;28;20047;-69
2022/08/27 09:01:10;;;;;;;2.65;0.90;;;;;;;21.69;57.12;101578.75;1047718;28;20047;-72
2022/08/27 09:01:43;;;;;;;6.55;1.48;;;;;;;21.71;57.13;101575.78;1043372;28;20042;-72
2022/08/27 09:02:15;;;;;;;6.00;0.82;;;;;;;21.71;57.15;101576.59;1046765;28;20429;-72
2022/08/27 09:02:53;;;;;;;2.58;0.80;;;;;;;21.72;57.15;101571.97;1046410;28;20052;-70
2022/08/27 09:03:27;;;;;;;4.95;1.38;;;;;;;21.74;57.02;101570.63;1046700;28;20045;-70
2022/08/27 09:04:04;;;;;;;4.25;0.88;;;;;;;21.69;57.38;101572.53;1047476;28;20650;-71
2022/08/27 09:04:36;;;;;;;2.50;1.10;;;;;;;21.69;57.50;101581.47;1045939;28;20060;-70
2022/08/27 09:05:08;;;;;;;5.80;1.00;;;;;;;21.69;57.39;101576.06;1049726;28;20045;-71
2022/08/27 09:05:46;;;;;;;6.35;0.93;;;;;;;21.70;57.25;101574.97;1053419;28;20039;-71
2022/08/27 09:06:26;;;;;;;2.00;1.00;;;;;;;21.69;57.55;101581.47;1054071;28;20520;-70
2022/08/27 09:07:03;;;;;;;5.63;1.08;;;;;;;21.71;57.58;101579.31;1053433;28;20051;-71
2022/08/27 09:08:04;;;;;;;3.03;0.90;;;;;;;21.72;57.25;101571.97;1056555;28;20086;-71
2022/08/27 09:09:01;;;;;;;4.50;1.00;;;;;;;21.78;57.11;101577.13;1059933;27;20043;-71
2022/08/27 09:09:52;;;;;;;7.22;1.13;;;;;;;21.76;57.40;101579.28;1060782;27;20035;-72
2022/08/27 09:10:37;;;;;;;4.75;1.10;;;;;;;21.78;57.38;101576.31;1059730;27;20054;-71
2022/08/27 09:11:27;;;;;;;2.08;0.80;;;;;;;21.83;56.77;101579.81;1060897;27;20448;-72
2022/08/27 09:12:04;;;;;;;4.32;0.82;;;;;;;21.76;57.26;101573.88;1056085;28;20517;-71
2022/08/27 09:12:36;;;;;;;1.80;0.88;;;;;;;21.74;57.53;101576.03;1051930;28;20040;-71
2022/08/27 09:13:19;;;;;;;5.07;1.02;;;;;;;21.76;57.22;101573.88;1051958;28;20040;-70
2022/08/27 09:13:52;;;;;;;8.10;0.90;;;;;;;21.81;57.39;101587.41;1054572;28;20047;-71
2022/08/27 09:14:35;;;;;;;5.75;1.10;;;;;;;21.85;57.51;101571.41;1058757;27;20046;-71
2022/08/27 09:15:12;;;;;;;5.38;0.65;;;;;;;21.86;57.28;101578.47;1056405;28;20063;-71
2022/08/27 09:15:45;;;;;;;8.40;1.73;;;;;;;21.87;56.92;101578.19;1054140;28;20047;-71
2022/08/27 09:16:17;;;;;;;5.32;1.05;;;;;;;21.84;56.72;101565.16;1056451;28;20055;-71
2022/08/27 09:16:49;;;;;;;3.42;0.93;;;;;;;21.89;57.09;101576.00;1057783;27;20114;-71
2022/08/27 09:17:27;;;;;;;3.65;1.05;;;;;;;21.89;56.96;101567.06;1060880;27;20039;-70
2022/08/27 09:18:14;;;;;;;1.90;0.80;;;;;;;21.95;56.88;101565.16;1060237;27;20047;-70
2022/08/27 09:18:48;;;;;;;1.77;0.77;;;;;;;21.92;56.49;101566.53;1055983;28;20047;-70
2022/08/27 09:19:22;;;;;;;4.05;1.00;;;;;;;21.89;56.35;101576.00;1051161;28;20122;-71
2022/08/27 09:19:55;;;;;;;2.58;1.15;;;;;;;21.90;56.12;101569.50;1051791;28;20032;-70
2022/08/27 09:20:28;;;;;;;6.15;2.13;;;;;;;21.87;55.82;101570.03;1053506;28;20128;-70
2022/08/27 09:21:18;;;;;;;2.03;0.82;;;;;;;21.87;55.83;101570.03;1049302;28;20545;-71
2022/08/27 09:22:19;;;;;;;3.58;1.00;;;;;;;21.88;55.63;101570.84;1050470;28;20059;-70
2022/08/27 09:23:12;;;;;;;1.33;0.80;;;;;;;21.86;55.53;101568.41;1057862;27;20050;-71
2022/08/27 09:23:58;;;;;;;5.25;1.23;;;;;;;21.82;55.37;101567.34;1055601;28;20173;-71
2022/08/27 09:24:51;;;;;;;1.92;0.77;;;;;;;21.82;55.41;101566.53;1051735;28;20040;-70
2022/08/27 09:25:23;;;;;;;2.47;1.17;;;;;;;21.82;55.45;101571.97;1053489;28;20123;-70
2022/08/27 09:25:55;;;;;;;5.40;1.00;;;;;;;21.81;55.32;101570.34;1051864;28;20051;-70
2022/08/27 09:26:31;;;;;;;1.40;0.75;;;;;;;21.82;55.36;101572.78;1056081;28;20039;-70
2022/08/27 09:27:02;;;;;;;3.22;1.05;;;;;;;21.81;55.37;101565.72;1056254;28;20097;-70
2022/08/27 09:27:37;;;;;;;2.00;0.52;;;;;;;21.82;55.00;101561.91;1057371;27;20036;-70
2022/08/27 09:29:14;;;;;;;8.82;1.10;;;;;;;21.84;55.23;101570.59;1055837;28;20050;-71
2022/08/27 09:29:52;;;;;;;3.45;0.82;;;;;;;21.82;55.46;101564.63;1053958;28;20138;-71
2022/08/27 09:30:27;;;;;;;4.25;1.05;;;;;;;21.81;55.41;101567.63;1056819;27;20044;-70
2022/08/27 09:31:07;;;;;;;1.67;0.70;;;;;;;21.81;55.66;101568.44;1060748;27;20684;-71
2022/08/27 09:31:42;;;;;;;4.20;0.90;;;;;;;21.79;55.83;101573.31;1057603;27;20055;-71
2022/08/27 09:32:14;;;;;;;1.90;0.90;;;;;;;21.80;55.99;101564.09;1060928;27;20485;-71
2022/08/27 09:32:55;;;;;;;3.35;0.77;;;;;;;21.77;55.79;101567.34;1058571;27;20043;-72
2022/08/27 09:33:26;;;;;;;2.47;0.90;;;;;;;21.81;55.86;101564.91;1061026;27;20047;-72
2022/08/27 09:34:15;;;;;;;5.85;0.82;;;;;;;21.84;56.09;101565.16;1059250;27;20046;-72
2022/08/27 09:34:46;;;;;;;3.45;1.98;;;;;;;21.85;55.96;101572.22;1060720;27;20172;-72
2022/08/27 09:35:19;;;;;;;5.00;1.35;;;;;;;21.85;56.38;101566.78;1060610;27;20510;-70
2022/08/27 09:35:51;;;;;;;3.08;0.95;;;;;;;21.83;56.39;101568.97;1060017;27;20051;-71
2022/08/27 09:36:24;;;;;;;1.02;0.60;;;;;;;21.80;56.44;101574.94;1056086;28;20564;-72
2022/08/27 09:37:23;;;;;;;2.20;1.50;;;;;;;21.83;56.44;101577.09;1051989;28;20047;-72
2022/08/27 09:38:05;;;;;;;4.55;0.80;;;;;;;21.84;56.47;101581.44;1049241;28;20048;-71
2022/08/27 09:38:40;;;;;;;2.33;0.90;;;;;;;21.87;56.31;101570.03;1048964;28;20066;-71
2022/08/27 09:39:17;;;;;;;4.68;0.90;;;;;;;21.87;56.01;101580.91;1047739;28;20352;-71
2022/08/27 09:40:14;;;;;;;4.13;0.80;;;;;;;21.84;56.32;101575.22;1050950;28;20036;-71
2022/08/27 09:40:57;;;;;;;2.63;1.10;;;;;;;21.85;56.57;101574.94;1037068;28;20533;-70
2022/08/27 09:41:34;;;;;;;1.05;0.70;;;;;;;21.83;56.69;101574.41;1039735;28;20061;-70
2022/08/27 09:42:06;;;;;;;3.97;0.65;;;;;;;21.86;56.65;101576.56;1052078;28;20040;-70
2022/08/27 09:42:45;;;;;;;3.33;1.02;;;;;;;21.86;56.32;101573.84;1054530;28;20043;-69
2022/08/27 09:43:27;;;;;;;5.30;1.08;;;;;;;21.92;55.85;101571.16;1051968;28;20054;-70
2022/08/27 09:44:10;;;;;;;3.45;0.98;;;;;;;21.90;56.46;101576.81;1050290;28;20040;-71
2022/08/27 09:44:46;;;;;;;2.65;1.05;;;;;;;21.90;56.61;101568.69;1052124;28;20040;-70
2022/08/27 09:45:27;;;;;;;1.27;0.60;;;;;;;21.92;56.55;101568.44;1056539;28;20046;-69
2022/08/27 09:46:04;;;;;;;3.70;1.23;;;;;;;21.94;56.22;101574.41;1051899;28;20602;-69
2022/08/27 09:46:35;;;;;;;2.45;0.73;;;;;;;21.93;55.93;101578.19;1051938;28;20058;-71
2022/08/27 09:59:52;;;;;;;6.65;1.25;;;;;;;26.04;43.12;101533.13;1273783;23;20028;-85
2022/08/27 10:00:35;;;;;;;1.65;0.70;;;;;;;26.00;42.89;101532.09;1275728;23;20056;-84
2022/08/27 10:01:20;;;;;;;4.63;1.02;;;;;;;25.85;43.73;101535.16;1269586;23;20090;-85
2022/08/27 10:01:54;;;;;;;2.53;1.38;;;;;;;25.57;43.90;101535.06;1263346;23;20457;-85
2022/08/27 10:02:27;;;;;;;5.90;1.10;;;;;;;25.40;44.34;101534.00;1243601;23;20020;-84
2022/08/27 10:03:02;;;;;;;0.90;0.57;;;;;;;25.31;44.86;101531.16;1255425;23;20025;-84
2022/08/27 10:03:34;;;;;;;4.18;0.90;;;;;;;24.89;45.17;101530.13;1251452;23;20023;-85
2022/08/27 10:04:13;;;;;;;2.03;0.75;;;;;;;24.64;45.77;101538.69;1251580;23;20377;-85
2022/08/27 10:04:48;;;;;;;4.85;0.75;;;;;;;24.77;46.54;101543.41;1249135;23;20015;-86
2022/08/27 10:05:34;;;;;;;3.65;1.02;;;;;;;24.96;46.21;101544.22;1251529;23;20018;-85
2022/08/27 10:06:06;;;;;;;1.17;0.73;;;;;;;24.61;46.18;101533.81;1263373;23;20021;-85
2022/08/27 10:06:46;;;;;;;1.52;0.80;;;;;;;24.61;46.22;101525.66;1255354;23;20471;-85
2022/08/27 10:07:42;;;;;;;2.22;0.77;;;;;;;24.59;46.37;101541.47;1257388;23;20025;-85
2022/08/27 10:08:22;;;;;;;2.78;0.60;;;;;;;24.31;46.95;101541.28;1244715;23;20016;-85
2022/08/27 10:08:57;;;;;;;3.53;0.90;;;;;;;24.15;47.49;101542.56;1244553;23;20024;-85
2022/08/27 10:09:32;;;;;;;1.67;0.70;;;;;;;24.21;47.76;101541.41;1251421;23;20015;-84
2022/08/27 10:10:06;;;;;;;4.20;1.02;;;;;;;24.30;47.66;101541.59;1261119;23;20023;-84
2022/08/27 10:10:46;;;;;;;4.72;1.08;;;;;;;24.21;47.48;101546.03;1261184;23;20437;-84
2022/08/27 10:11:35;;;;;;;2.45;0.68;;;;;;;24.31;47.14;101546.72;1259694;23;20018;-84
2022/08/27 10:12:24;;;;;;;132.75;16.83;;;;;;;24.35;47.28;101541.50;1263510;23;20106;-85
2022/08/27 10:13:08;;;;;;;29.10;3.38;;;;;;;24.33;47.12;101544.53;1255542;23;20023;-85
2022/08/27 10:13:57;;;;;;;6.85;1.83;;;;;;;24.56;47.92;101542.06;1249322;23;20046;-85
2022/08/27 10:14:39;;;;;;;3.40;1.15;;;;;;;24.49;47.52;101545.16;1245623;23;20023;-84
2022/08/27 10:15:13;;;;;;;5.05;0.80;;;;;;;24.52;47.50;101546.47;1254907;23;20350;-85
2022/08/27 10:15:54;;;;;;;1.98;0.88;;;;;;;24.38;47.64;101545.56;1255122;23;20021;-84
2022/08/27 10:16:51;;;;;;;3.40;0.90;;;;;;;24.25;46.91;101542.44;1249244;23;20038;-85
2022/08/27 10:17:41;;;;;;;2.30;0.70;;;;;;;23.87;47.17;101546.94;1252635;23;20058;-84
2022/08/27 10:18:26;;;;;;;2.13;0.80;;;;;;;23.51;48.46;101541.00;1255669;23;20023;-85
2022/08/27 10:19:16;;;;;;;1.92;1.48;;;;;;;23.47;49.02;101548.09;1258595;23;20517;-85
2022/08/27 10:20:08;;;;;;;1.88;0.90;;;;;;;23.47;49.32;101545.38;1258109;23;20022;-85
2022/08/27 10:20:49;;;;;;;2.40;0.82;;;;;;;23.49;49.26;101537.75;1257526;23;20089;-84
2022/08/27 10:21:45;;;;;;;4.82;1.17;;;;;;;23.54;48.97;101543.13;1263835;23;20038;-85
2022/08/27 10:22:30;;;;;;;2.00;1.45;;;;;;;23.51;49.29;101543.72;1257328;23;20022;-84
2022/08/27 10:23:13;;;;;;;5.40;1.00;;;;;;;23.55;49.34;101544.75;1263568;23;20014;-85
2022/08/27 10:24:09;;;;;;;5.35;1.40;;;;;;;23.67;49.66;101537.06;1257253;23;20021;-85
2022/08/27 10:25:02;;;;;;;3.25;0.88;;;;;;;23.63;49.26;101546.91;1263314;23;20018;-84
2022/08/27 10:25:52;;;;;;;1.20;0.82;;;;;;;23.76;50.35;101545.41;1258468;23;20026;-85
2022/08/27 10:26:33;;;;;;;5.32;0.80;;;;;;;23.59;49.10;101543.16;1257372;23;20025;-85
2022/08/27 10:27:17;;;;;;;4.72;1.25;;;;;;;23.50;49.31;101547.53;1257315;23;20261;-84
2022/08/27 10:28:11;;;;;;;3.85;0.98;;;;;;;23.57;49.12;101537.19;1254941;23;20070;-84
2022/08/27 10:29:08;;;;;;;4.80;1.50;;;;;;;23.83;49.48;101545.06;1260891;23;20092;-85
2022/08/27 10:29:46;;;;;;;4.82;1.13;;;;;;;23.89;49.53;101552.09;1261511;23;20467;-84
2022/08/27 10:30:20;;;;;;;16.10;3.95;;;;;;;23.78;50.08;101542.41;1262369;23;20080;-85
2022/08/27 10:31:17;;;;;;;8.43;1.27;;;;;;;24.02;50.87;101554.13;1269497;23;20010;-84
2022/08/27 10:32:15;;;;;;;3.85;1.00;;;;;;;23.83;49.05;101545.06;1269299;23;20010;-85
2022/08/27 10:32:57;;;;;;;3.30;1.00;;;;;;;23.60;48.27;101544.78;1266210;23;20041;-85
2022/08/27 10:33:52;;;;;;;3.58;1.00;;;;;;;23.47;48.41;101544.56;1255222;23;20355;-84
2022/08/27 10:35:06;;;;;;;3.97;0.95;;;;;;;23.09;49.47;101542.44;1258390;23;20023;-84
2022/08/27 10:35:49;;;;;;;;;;;;;;;22.96;50.09;101548.47;1260738;23;20728;-85
2022/08/27 10:36:37;;;;;;;1.90;0.80;;;;;;;22.92;50.40;101552.88;1273116;23;19921;-85
2022/08/27 10:37:22;;;;;;;3.20;1.50;;;;;;;22.92;50.30;101552.88;1267273;23;20018;-85
2022/08/27 10:38:10;;;;;;;2.55;0.82;;;;;;;22.98;49.95;101548.19;1261025;23;20070;-85
2022/08/27 10:38:49;;;;;;;2.63;1.40;;;;;;;22.75;50.69;101550.50;1267153;23;20020;-86
2022/08/27 10:39:35;;;;;;;2.40;0.70;;;;;;;22.68;50.96;101551.88;1260578;23;20018;-85
2022/08/27 10:40:19;;;;;;;2.58;1.02;;;;;;;22.93;50.72;101554.50;1261237;23;20030;-84
2022/08/27 10:41:01;;;;;;;4.22;1.00;;;;;;;23.03;50.36;101553.63;1257328;23;20010;-84
2022/08/27 10:41:39;;;;;;;2.53;1.15;;;;;;;23.03;50.53;101548.19;1249459;23;20023;-84
2022/08/27 10:42:26;;;;;;;5.25;0.98;;;;;;;23.07;50.31;101541.91;1243594;23;20059;-85
2022/08/27 10:43:20;;;;;;;2.22;1.00;;;;;;;22.98;50.63;101554.44;1255211;23;20097;-84
2022/08/27 10:44:22;;;;;;;2.00;1.02;;;;;;;23.30;52.54;101567.56;1266786;23;20017;-83
2022/08/27 10:44:59;;;;;;;5.10;1.67;;;;;;;23.43;52.19;101557.94;1267963;23;20014;-83
2022/08/27 10:45:41;;;;;;;130.65;18.95;;;;;;;23.44;53.47;101568.53;1261089;23;20018;-83
2022/08/27 10:46:31;;;;;;;27.88;4.47;;;;;;;23.51;51.45;101554.59;1255129;23;20018;-83
2022/08/27 10:47:14;;;;;;;3.80;1.20;;;;;;;23.43;51.45;101558.75;1260970;23;20455;-83
2022/08/27 10:48:14;;;;;;;2.88;1.38;;;;;;;23.41;52.37;101571.81;1262765;23;20722;-83
2022/08/27 10:49:00;;;;;;;2.78;0.90;;;;;;;23.36;51.08;101562.91;1257283;23;20010;-83
2022/08/27 10:49:42;;;;;;;3.38;0.80;;;;;;;23.08;51.76;101564.47;1257504;23;20110;-84
2022/08/27 10:50:19;;;;;;;4.03;1.20;;;;;;;23.03;52.45;101559.88;1257333;23;20018;-83
2022/08/27 10:51:07;;;;;;;2.13;0.90;;;;;;;22.86;52.64;101564.06;1269235;23;20515;-83
2022/08/27 10:51:51;;;;;;;2.35;0.80;;;;;;;22.60;52.60;101557.91;1269293;23;20014;-83
2022/08/27 10:53:02;;;;;;;3.08;0.88;;;;;;;22.43;53.02;101555.53;1260808;23;20031;-83
2022/08/27 10:53:51;;;;;;;2.55;1.17;;;;;;;22.45;53.19;101565.03;1255798;23;20026;-83
2022/08/27 10:54:26;;;;;;;2.92;0.90;;;;;;;22.48;53.50;101564.50;1256050;23;20267;-83
2022/08/27 10:55:19;;;;;;;3.20;1.17;;;;;;;22.49;53.29;101571.53;1250709;23;20505;-83
2022/08/27 10:56:20;;;;;;;2.88;0.95;;;;;;;22.29;53.47;101565.38;1245090;23;20444;-84
2022/08/27 10:57:07;;;;;;;2.85;0.90;;;;;;;22.31;53.28;101557.75;1237680;24;20023;-83
2022/08/27 10:58:39;;;;;;;4.43;1.10;;;;;;;22.27;54.17;101568.38;1274683;23;20072;-83
2022/08/27 10:59:37;;;;;;;5.10;1.17;;;;;;;22.10;53.69;101567.88;1271609;23;20045;-83